Eishun — JD2292 — position and weather

sailwx.info

Track history (hours):
 
Tides and Currents Weather Stations Pressure Air Temp Water Temp Dewpoint Dewpoint Depression Visibility Wind Speed Wind Dir Waves Ship Positions

Eishun

Last reported at 2018-Jul-11 04:16 UTC. Time now 2018-Jul-22 12:49 UTC.
Position N 33°56' E 134°60'.
Warning: this ship's position is 11 days out of date.

Length 40 m; draft 4.2 m.

Type: Tug. MMSI: 431602341.

Date/timePositionNaut miles runAvg speedWind from/ knotsBaromVisibWave heightAir tempDewpointWater temp
2018-Jul-11 04:16N 33°56' E 134°60'2 6.2
2018-Jul-11 04:00N 33°58' E 134°60'3 6.5
2018-Jul-11 03:30N 34°01' E 134°60'3 6.9
2018-Jul-11 03:00N 34°04' E 134°59'4 7.2
2018-Jul-11 02:30N 34°08' E 134°59'4 7.3
2018-Jul-11 01:59N 34°12' E 134°59'3 7.0
2018-Jul-11 01:30N 34°15' E 134°59'3 5.9
2018-Jul-11 01:00N 34°18' E 134°59'3 5.4
2018-Jul-11 00:30N 34°21' E 134°60'3 5.5
2018-Jul-11 00:00N 34°23' E 135°02'3 5.0
2018-Jul-10 23:30N 34°24' E 135°04'3 5.1
2018-Jul-10 23:00N 34°26' E 135°06'3 5.8
2018-Jul-10 22:30N 34°28' E 135°09'3 5.8
2018-Jul-10 22:00N 34°29' E 135°12'3 5.2
2018-Jul-10 21:30N 34°30' E 135°15'3 5.7
2018-Jul-10 21:00N 34°31' E 135°19'3 5.1
2018-Jul-10 20:30N 34°32' E 135°21'2 4.2
2018-Jul-10 19:59N 34°32' E 135°24'1 2.3
2018-Jul-10 19:30N 34°31' E 135°24'0 0.2
2018-Jul-10 19:00N 34°31' E 135°25'0 0.1
2018-Jul-10 18:29N 34°31' E 135°25'0 0.1
2018-Jul-10 18:00N 34°31' E 135°25'0 0.1
2018-Jul-10 17:30N 34°31' E 135°25'0 0.0
2018-Jul-10 17:00N 34°31' E 135°25'0 0.0
2018-Jul-10 16:30N 34°31' E 135°25'0 0.1
2018-Jul-10 16:00N 34°31' E 135°25'0 0.1
2018-Jul-10 15:30N 34°31' E 135°25'0 0.0
2018-Jul-10 15:00N 34°31' E 135°25'0 0.0
2018-Jul-10 14:30N 34°31' E 135°25'0 0.0
2018-Jul-10 14:00N 34°31' E 135°25'0 0.0
2018-Jul-10 13:30N 34°31' E 135°25'0 0.1
2018-Jul-10 13:00N 34°31' E 135°25'0 0.0
2018-Jul-10 12:30N 34°31' E 135°25'0 0.1
2018-Jul-10 12:00N 34°31' E 135°25'0 0.1
2018-Jul-10 11:30N 34°31' E 135°25'0 0.0
2018-Jul-10 11:00N 34°31' E 135°25'0 0.0
2018-Jul-10 10:30N 34°31' E 135°25'0 0.1
2018-Jul-10 10:00N 34°31' E 135°25'0 0.0
2018-Jul-10 09:30N 34°31' E 135°25'0 0.1
2018-Jul-10 09:00N 34°31' E 135°25'0 0.1
2018-Jul-10 08:30N 34°31' E 135°25'0 0.0
2018-Jul-10 08:00N 34°31' E 135°25'0 0.0
2018-Jul-10 07:30N 34°31' E 135°25'0 0.1
2018-Jul-10 06:59N 34°31' E 135°25'0 0.0
2018-Jul-10 06:30N 34°31' E 135°25'0 0.1
2018-Jul-10 06:00N 34°31' E 135°25'0 0.0
2018-Jul-10 05:30N 34°31' E 135°25'0 0.1
2018-Jul-10 04:59N 34°31' E 135°25'0 0.0
2018-Jul-10 04:30N 34°31' E 135°25'611.0
2018-Jul-10 03:59N 34°33' E 135°18'612.9
2018-Jul-10 03:30N 34°35' E 135°11'714.0
2018-Jul-10 03:00N 34°36' E 135°02'1014.8
2018-Jul-10 02:21N 34°34' E 134°51'613.8
2018-Jul-10 01:56N 34°32' E 134°44'813.3
2018-Jul-10 01:20N 34°29' E 134°36'  
Track history (hours):
 
Tides and Currents Weather Stations Pressure Air Temp Water Temp Dewpoint Dewpoint Depression Visibility Wind Speed Wind Dir Waves Ship Positions

Eishun

Last reported at 2018-Jul-11 04:16 UTC. Time now 2018-Jul-22 12:49 UTC.
Position N 33°56' E 134°60'.
Warning: this ship's position is 11 days out of date.

Length 40 m; draft 4.2 m.

Type: Tug. MMSI: 431602341.

Date/timePositionNaut miles runAvg speedWind from/ knotsBaromVisibWave heightAir tempDewpointWater temp
2018-Jul-11 04:16N 33°56' E 134°60'2 6.2
2018-Jul-11 04:00N 33°58' E 134°60'3 6.5
2018-Jul-11 03:30N 34°01' E 134°60'3 6.9
2018-Jul-11 03:00N 34°04' E 134°59'4 7.2
2018-Jul-11 02:30N 34°08' E 134°59'4 7.3
2018-Jul-11 01:59N 34°12' E 134°59'3 7.0
2018-Jul-11 01:30N 34°15' E 134°59'3 5.9
2018-Jul-11 01:00N 34°18' E 134°59'3 5.4
2018-Jul-11 00:30N 34°21' E 134°60'3 5.5
2018-Jul-11 00:00N 34°23' E 135°02'3 5.0
2018-Jul-10 23:30N 34°24' E 135°04'3 5.1
2018-Jul-10 23:00N 34°26' E 135°06'3 5.8
2018-Jul-10 22:30N 34°28' E 135°09'3 5.8
2018-Jul-10 22:00N 34°29' E 135°12'3 5.2
2018-Jul-10 21:30N 34°30' E 135°15'3 5.7
2018-Jul-10 21:00N 34°31' E 135°19'3 5.1
2018-Jul-10 20:30N 34°32' E 135°21'2 4.2
2018-Jul-10 19:59N 34°32' E 135°24'1 2.3
2018-Jul-10 19:30N 34°31' E 135°24'0 0.2
2018-Jul-10 19:00N 34°31' E 135°25'0 0.1
2018-Jul-10 18:29N 34°31' E 135°25'0 0.1
2018-Jul-10 18:00N 34°31' E 135°25'0 0.1
2018-Jul-10 17:30N 34°31' E 135°25'0 0.0
2018-Jul-10 17:00N 34°31' E 135°25'0 0.0
2018-Jul-10 16:30N 34°31' E 135°25'0 0.1
2018-Jul-10 16:00N 34°31' E 135°25'0 0.1
2018-Jul-10 15:30N 34°31' E 135°25'0 0.0
2018-Jul-10 15:00N 34°31' E 135°25'0 0.0
2018-Jul-10 14:30N 34°31' E 135°25'0 0.0
2018-Jul-10 14:00N 34°31' E 135°25'0 0.0
2018-Jul-10 13:30N 34°31' E 135°25'0 0.1
2018-Jul-10 13:00N 34°31' E 135°25'0 0.0
2018-Jul-10 12:30N 34°31' E 135°25'0 0.1
2018-Jul-10 12:00N 34°31' E 135°25'0 0.1
2018-Jul-10 11:30N 34°31' E 135°25'0 0.0
2018-Jul-10 11:00N 34°31' E 135°25'0 0.0
2018-Jul-10 10:30N 34°31' E 135°25'0 0.1
2018-Jul-10 10:00N 34°31' E 135°25'0 0.0
2018-Jul-10 09:30N 34°31' E 135°25'0 0.1
2018-Jul-10 09:00N 34°31' E 135°25'0 0.1
2018-Jul-10 08:30N 34°31' E 135°25'0 0.0
2018-Jul-10 08:00N 34°31' E 135°25'0 0.0
2018-Jul-10 07:30N 34°31' E 135°25'0 0.1
2018-Jul-10 06:59N 34°31' E 135°25'0 0.0
2018-Jul-10 06:30N 34°31' E 135°25'0 0.1
2018-Jul-10 06:00N 34°31' E 135°25'0 0.0
2018-Jul-10 05:30N 34°31' E 135°25'0 0.1
2018-Jul-10 04:59N 34°31' E 135°25'0 0.0
2018-Jul-10 04:30N 34°31' E 135°25'611.0
2018-Jul-10 03:59N 34°33' E 135°18'612.9
2018-Jul-10 03:30N 34°35' E 135°11'714.0
2018-Jul-10 03:00N 34°36' E 135°02'1014.8
2018-Jul-10 02:21N 34°34' E 134°51'613.8
2018-Jul-10 01:56N 34°32' E 134°44'813.3
2018-Jul-10 01:20N 34°29' E 134°36'  

Dump ship's entire track history